Time;durP1;ratioP1;P1;durP2;ratioP2;P2;SDS_P1;SDS_P2;PMS_P1;PMS_P2;Temp;Humidity;BMP_temperature;BMP_pressure;BME280_temperature;BME280_humidity;BME280_pressure;Samples;Min_cycle;Max_cycle;Signal;HPM_P1;HPM_P2
2023/04/11 00:01:31;;;;;;;;;5.00;4.67;;;;;15.35;100.00;101123.66;5081584;28;45352;-77
2023/04/11 00:03:56;;;;;;;;;2.67;2.00;;;;;15.37;100.00;101127.00;5080185;28;45326;-77
2023/04/11 00:06:23;;;;;;;;;3.00;1.33;;;;;15.32;100.00;101113.34;5081395;27;45418;-76
2023/04/11 00:08:48;;;;;;;;;2.00;2.00;;;;;15.30;100.00;101119.94;5081456;27;46179;-77
2023/04/11 00:11:14;;;;;;;;;1.00;1.00;;;;;15.31;100.00;101132.28;5080074;28;45311;-76
2023/04/11 00:13:40;;;;;;;;;1.00;1.00;;;;;15.25;100.00;101134.75;5080940;27;45279;-77
2023/04/11 00:16:07;;;;;;;;;1.33;1.00;;;;;15.20;100.00;101136.34;5079808;28;47184;-76
2023/04/11 00:18:34;;;;;;;;;2.00;2.00;;;;;15.19;100.00;101129.31;5079734;28;48074;-76
2023/04/11 00:21:00;;;;;;;;;2.00;2.00;;;;;15.13;100.00;101130.94;5081009;27;45381;-77
2023/04/11 00:23:25;;;;;;;;;2.00;2.00;;;;;15.16;100.00;101154.66;5080052;28;45411;-77
2023/04/11 00:25:51;;;;;;;;;2.00;2.00;;;;;15.17;100.00;101158.97;5081050;28;48979;-77
2023/04/11 00:28:16;;;;;;;;;2.00;2.00;;;;;15.18;100.00;101155.28;5079012;28;47251;-77
2023/04/11 00:30:41;;;;;;;;;5.67;4.00;;;;;15.09;100.00;101143.06;5080617;28;55030;-77
2023/04/11 00:33:06;;;;;;;;;2.00;2.00;;;;;15.05;100.00;101152.50;5081255;28;45299;-77
2023/04/11 00:35:36;;;;;;;;;2.00;2.00;;;;;15.10;100.00;101145.53;5062492;28;50004;-77
2023/04/11 00:38:02;;;;;;;;;1.67;1.33;;;;;15.00;100.00;101134.34;5062736;28;48307;-77
2023/04/11 00:40:28;;;;;;;;;4.00;1.67;;;;;14.98;100.00;101125.69;5062647;28;45618;-77
2023/04/11 00:42:55;;;;;;;;;6.33;2.00;;;;;14.92;100.00;101131.81;5080839;28;45138;-76
2023/04/11 00:45:20;;;;;;;;;3.67;1.33;;;;;15.08;100.00;101138.75;5080798;28;45460;-76
2023/04/11 00:47:45;;;;;;;;;1.33;1.33;;;;;15.03;100.00;101128.63;5080843;28;45367;-77
2023/04/11 00:50:12;;;;;;;;;2.00;2.00;;;;;15.08;100.00;101142.22;5080748;28;45324;-76
2023/04/11 00:52:38;;;;;;;;;2.33;1.00;;;;;15.02;100.00;101151.88;5081101;28;45334;-76
2023/04/11 00:55:05;;;;;;;;;2.00;1.00;;;;;15.13;100.00;101149.69;5062532;28;47302;-77
2023/04/11 00:57:31;;;;;;;;;2.00;2.00;;;;;15.05;100.00;101152.50;5080322;28;45247;-76
2023/04/11 00:59:57;;;;;;;;;3.00;2.00;;;;;15.07;100.00;101159.31;5080725;28;45249;-77
2023/04/11 01:02:23;;;;;;;;;2.33;1.00;;;;;15.01;100.00;101149.38;5080775;28;45231;-77
2023/04/11 01:04:49;;;;;;;;;3.67;3.67;;;;;14.88;100.00;101150.13;5062443;28;47447;-76
2023/04/11 01:07:18;;;;;;;;;1.33;1.00;;;;;14.88;100.00;101160.81;5062133;28;48070;-76
2023/04/11 01:09:44;;;;;;;;;1.67;1.33;;;;;14.35;100.00;101169.94;5080431;28;45308;-77
2023/04/11 01:12:13;;;;;;;;;1.00;1.00;;;;;14.17;100.00;101171.19;5080475;28;45332;-77
2023/04/11 01:18:01;;;;;;;;;3.00;2.00;;;;;14.48;100.00;101162.06;5080372;28;45709;-78
2023/04/11 01:20:27;;;;;;;;;4.00;2.67;;;;;14.43;100.00;101159.13;5080242;28;45257;-76
2023/04/11 01:22:55;;;;;;;;;3.00;3.00;;;;;14.30;100.00;101167.81;5062086;28;45195;-76
2023/04/11 01:25:21;;;;;;;;;2.00;0.00;;;;;14.33;100.00;101174.63;5080180;28;45480;-78
2023/04/11 01:27:47;;;;;;;;;1.67;1.67;;;;;14.39;100.00;101197.94;5079941;28;46050;-76
2023/04/11 01:30:12;;;;;;;;;2.33;1.00;;;;;14.55;100.00;101188.88;5080000;28;45366;-76
2023/04/11 01:32:38;;;;;;;;;0.00;0.00;;;;;14.44;100.00;101197.38;5078948;28;45353;-77
2023/04/11 01:35:04;;;;;;;;;2.00;2.00;;;;;14.35;100.00;101178.78;5080140;28;45453;-76
2023/04/11 01:37:30;;;;;;;;;2.00;2.00;;;;;14.31;100.00;101180.16;5078246;28;47600;-76
2023/04/11 01:39:55;;;;;;;;;1.67;1.00;;;;;14.38;100.00;101170.41;5079674;28;45214;-77
2023/04/11 01:42:32;;;;;;;;;1.67;1.67;;;;;14.30;100.00;101164.34;5079519;27;45266;-77
2023/04/11 01:44:58;;;;;;;;;3.67;2.67;;;;;14.39;100.00;101172.03;5080145;27;45511;-76
2023/04/11 01:47:24;;;;;;;;;2.00;1.33;;;;;14.49;100.00;101182.41;5079882;27;45247;-76
2023/04/11 01:49:49;;;;;;;;;2.00;2.00;;;;;14.60;100.00;101178.44;5079893;28;45393;-77
2023/04/11 01:52:14;;;;;;;;;2.00;2.00;;;;;14.50;100.00;101183.25;5079942;28;45429;-76
2023/04/11 01:54:40;;;;;;;;;0.33;0.33;;;;;14.48;100.00;101186.13;5080003;27;45401;-77
2023/04/11 01:57:05;;;;;;;;;2.67;1.67;;;;;14.50;100.00;101186.78;5079768;27;46638;-76
2023/04/11 01:59:30;;;;;;;;;3.00;2.00;;;;;14.44;100.00;101186.69;5078438;28;46189;-76
2023/04/11 02:01:56;;;;;;;;;3.00;1.00;;;;;14.43;100.00;101188.56;5079876;28;45306;-77
2023/04/11 02:04:21;;;;;;;;;2.67;1.00;;;;;14.45;100.00;101201.69;5079615;28;45264;-76
2023/04/11 02:06:46;;;;;;;;;3.00;1.00;;;;;14.41;100.00;101192.41;5079654;27;45298;-77
2023/04/11 02:09:12;;;;;;;;;1.00;1.00;;;;;14.35;100.00;101191.31;5079526;28;50181;-77
2023/04/11 02:11:37;;;;;;;;;4.00;2.67;;;;;14.38;100.00;101197.13;5079843;28;45315;-76
2023/04/11 02:14:02;;;;;;;;;3.67;1.00;;;;;14.36;100.00;101206.34;5079606;27;45452;-77
2023/04/11 02:16:28;;;;;;;;;1.00;1.00;;;;;14.34;100.00;101208.38;5079540;27;46043;-76
2023/04/11 02:18:55;;;;;;;;;4.00;2.00;;;;;14.61;100.00;101220.19;5059277;27;45375;-76
2023/04/11 02:21:20;;;;;;;;;1.00;1.00;;;;;14.30;100.00;101202.56;5059222;28;45225;-76
2023/04/11 02:23:45;;;;;;;;;1.00;1.00;;;;;14.32;100.00;101213.09;5059325;28;45451;-76
2023/04/11 02:26:11;;;;;;;;;3.67;1.00;;;;;14.58;100.00;101201.84;5059197;28;45193;-76
2023/04/11 02:28:36;;;;;;;;;3.33;2.00;;;;;14.63;100.00;101217.34;5043222;28;46018;-76
2023/04/11 02:31:02;;;;;;;;;3.00;2.00;;;;;14.22;100.00;101227.56;5079705;27;45296;-76
2023/04/11 02:33:28;;;;;;;;;2.00;1.67;;;;;14.16;100.00;101209.63;5078264;28;46323;-76
2023/04/11 02:35:53;;;;;;;;;2.33;2.33;;;;;14.07;100.00;101203.53;5077456;28;47006;-76
2023/04/11 02:38:19;;;;;;;;;2.33;2.00;;;;;14.12;100.00;101211.84;5079523;27;45163;-76
2023/04/11 02:40:44;;;;;;;;;1.67;1.67;;;;;14.14;100.00;101217.00;5078006;28;45370;-76
2023/04/11 02:43:09;;;;;;;;;2.00;1.00;;;;;14.13;100.00;101218.03;5079184;27;45395;-76
2023/04/11 02:45:35;;;;;;;;;4.33;4.33;;;;;14.03;100.00;101218.28;5079139;28;46721;-76
2023/04/11 02:48:00;;;;;;;;;2.00;2.00;;;;;14.09;100.00;101211.38;5079142;27;45401;-77
2023/04/11 02:50:26;;;;;;;;;2.00;2.00;;;;;14.07;100.00;101221.44;5079374;27;45251;-77
2023/04/11 02:52:51;;;;;;;;;1.33;1.00;;;;;14.08;100.00;101221.25;5080072;28;46475;-76
2023/04/11 02:55:17;;;;;;;;;2.00;2.00;;;;;14.00;100.00;101213.31;5082734;27;46379;-77
2023/04/11 02:57:43;;;;;;;;;3.33;3.00;;;;;14.04;100.00;101219.13;5082636;27;45387;-76
2023/04/11 03:00:08;;;;;;;;;3.67;2.00;;;;;13.99;100.00;101211.66;5082705;27;45476;-76
2023/04/11 03:02:34;;;;;;;;;2.00;2.00;;;;;13.95;100.00;101221.88;5082473;28;45436;-76
2023/04/11 03:05:02;;;;;;;;;2.00;2.00;;;;;13.89;100.00;101212.75;5080885;28;56107;-76
2023/04/11 03:07:31;;;;;;;;;4.67;3.33;;;;;13.78;100.00;101217.75;5082610;27;45223;-76
2023/04/11 03:13:18;;;;;;;;;4.33;1.33;;;;;14.21;100.00;101246.47;5082083;28;45207;-76
2023/04/11 03:15:44;;;;;;;;;2.00;1.00;;;;;14.10;100.00;101253.13;5080911;28;47375;-76
2023/04/11 03:18:09;;;;;;;;;3.00;1.67;;;;;14.00;100.00;101238.19;5082457;27;45377;-75
2023/04/11 03:20:34;;;;;;;;;0.00;0.00;;;;;14.19;100.00;101241.31;5082272;27;45381;-77
2023/04/11 03:23:00;;;;;;;;;3.00;2.00;;;;;13.99;100.00;101238.38;5082039;28;50282;-76
2023/04/11 03:25:27;;;;;;;;;2.00;2.00;;;;;14.03;100.00;101241.53;5080528;28;57080;-76
2023/04/11 03:27:52;;;;;;;;;3.33;2.00;;;;;13.97;100.00;101249.25;5081926;27;45347;-76
2023/04/11 03:30:17;;;;;;;;;3.00;2.00;;;;;13.91;100.00;101252.66;5081973;27;45403;-75
2023/04/11 03:32:42;;;;;;;;;2.00;2.00;;;;;13.97;100.00;101243.06;5081872;28;51134;-76
2023/04/11 03:35:09;;;;;;;;;1.67;1.00;;;;;13.93;100.00;101245.31;5082076;28;45252;-76
2023/04/11 03:37:35;;;;;;;;;2.00;1.33;;;;;13.66;100.00;101239.56;5081807;28;45185;-76
2023/04/11 03:40:00;;;;;;;;;3.00;1.00;;;;;14.21;100.00;101255.31;5063879;28;45249;-76
2023/04/11 03:42:26;;;;;;;;;2.00;1.33;;;;;14.17;100.00;101258.56;5062922;28;58288;-76
2023/04/11 03:44:51;;;;;;;;;4.00;1.00;;;;;13.79;100.00;101257.63;5081950;28;45462;-76
2023/04/11 03:47:16;;;;;;;;;4.33;3.33;;;;;13.60;100.00;101251.81;5081992;28;45213;-76
2023/04/11 03:49:42;;;;;;;;;3.67;2.00;;;;;13.55;100.00;101250.69;5063763;28;45634;-77
2023/04/11 03:52:08;;;;;;;;;1.33;0.00;;;;;15.05;100.00;101255.03;5081638;28;49862;-76
2023/04/11 03:54:34;;;;;;;;;0.00;0.00;;;;;15.20;100.00;101248.81;5063527;28;46537;-76
2023/04/11 03:56:59;;;;;;;;;4.00;2.67;;;;;15.77;100.00;101267.53;5081400;28;45544;-77
2023/04/11 03:59:25;;;;;;;;;4.00;2.33;;;;;14.84;100.00;101254.00;5081855;28;45466;-76
2023/04/11 04:01:50;;;;;;;;;2.00;2.00;;;;;14.18;100.00;101271.72;5063281;28;47014;-75
2023/04/11 04:04:16;;;;;;;;;2.33;2.33;;;;;13.84;100.00;101260.59;5080927;28;45855;-76
2023/04/11 04:06:41;;;;;;;;;4.33;2.67;;;;;13.82;100.00;101277.78;5081259;28;45296;-76
2023/04/11 04:09:07;;;;;;;;;3.67;3.67;;;;;13.79;100.00;101257.63;5081782;28;45366;-77
2023/04/11 04:11:32;;;;;;;;;3.33;2.00;;;;;13.72;100.00;101268.22;5081553;28;45287;-76
2023/04/11 04:13:57;;;;;;;;;2.67;2.00;;;;;13.61;100.00;101272.16;5081003;28;45330;-76
2023/04/11 04:16:23;;;;;;;;;3.67;3.00;;;;;13.60;100.00;101275.00;5081471;28;45332;-76
2023/04/11 04:18:48;;;;;;;;;2.00;2.00;;;;;13.63;100.00;101278.16;5081283;28;45326;-76
2023/04/11 04:21:14;;;;;;;;;2.33;2.33;;;;;13.63;100.00;101272.81;5081099;28;45456;-76
2023/04/11 04:23:46;;;;;;;;;2.67;1.00;;;;;13.69;100.00;101276.59;5081499;28;45292;-76
2023/04/11 04:26:14;;;;;;;;;2.00;2.00;;;;;13.72;100.00;101280.75;5062333;28;45332;-76
2023/04/11 04:28:46;;;;;;;;;2.00;2.00;;;;;13.66;100.00;101268.94;5080572;28;45439;-76
2023/04/11 04:31:13;;;;;;;;;5.00;3.33;;;;;13.66;100.00;101273.47;5080287;27;45337;-76
2023/04/11 04:33:41;;;;;;;;;1.00;1.00;;;;;13.62;100.00;101267.66;5078967;28;47150;-77
2023/04/11 04:36:08;;;;;;;;;2.33;2.33;;;;;13.66;100.00;101273.47;5080854;27;45329;-77
2023/04/11 04:38:37;;;;;;;;;4.33;3.00;;;;;13.61;100.00;101271.31;5079590;28;45408;-77
2023/04/11 04:41:04;;;;;;;;;3.00;2.00;;;;;13.71;100.00;101282.56;5080870;28;45279;-76
2023/04/11 04:43:31;;;;;;;;;3.00;1.67;;;;;13.72;100.00;101280.75;5080698;27;45292;-76
2023/04/11 04:45:57;;;;;;;;;6.00;4.00;;;;;13.68;100.00;101268.78;5072997;27;45438;-77
2023/04/11 04:48:24;;;;;;;;;2.00;2.00;;;;;13.67;100.00;101272.44;5053293;28;46816;-77
2023/04/11 04:50:49;;;;;;;;;1.67;1.67;;;;;13.68;100.00;101282.94;5074492;28;45586;-76
2023/04/11 04:53:14;;;;;;;;;2.00;2.00;;;;;13.65;100.00;101275.31;5070395;28;46326;-77
2023/04/11 04:55:40;;;;;;;;;5.67;2.67;;;;;13.69;100.00;101289.13;5041324;28;45408;-76
2023/04/11 04:58:05;;;;;;;;;5.00;3.33;;;;;13.64;100.00;101284.31;5060698;28;45321;-76
2023/04/11 05:00:32;;;;;;;;;3.00;3.00;;;;;13.70;100.00;101296.13;5060244;28;55735;-77
2023/04/11 05:02:57;;;;;;;;;5.33;4.67;;;;;13.61;100.00;101290.03;5060346;28;46139;-77
2023/04/11 05:05:22;;;;;;;;;3.00;3.00;;;;;13.45;100.00;101282.97;5060197;28;45363;-76
2023/04/11 05:07:48;;;;;;;;;2.00;2.00;;;;;13.53;100.00;101298.94;5061125;28;45411;-75
2023/04/11 05:10:13;;;;;;;;;3.67;2.00;;;;;13.46;100.00;101301.47;5060517;28;45338;-76
2023/04/11 05:12:38;;;;;;;;;3.00;2.00;;;;;13.46;100.00;101301.47;5060015;28;45339;-76
2023/04/11 05:15:08;;;;;;;;;4.00;1.00;;;;;13.47;100.00;101300.44;5059428;28;50375;-76
2023/04/11 05:17:33;;;;;;;;;4.33;3.33;;;;;13.44;100.00;101311.50;5060183;28;45568;-76
2023/04/11 05:19:59;;;;;;;;;3.00;3.00;;;;;13.44;100.00;101300.00;5060523;28;45330;-77
2023/04/11 05:22:24;;;;;;;;;5.33;4.00;;;;;13.54;100.00;101311.28;5060113;28;45339;-76
2023/04/11 05:24:50;;;;;;;;;3.33;3.33;;;;;13.60;100.00;101315.91;5060141;28;45379;-75
2023/04/11 05:27:15;;;;;;;;;3.33;2.00;;;;;13.65;100.00;101312.72;5060135;28;45366;-76
2023/04/11 05:29:40;;;;;;;;;1.00;1.00;;;;;13.60;100.00;101318.59;5071512;28;45380;-75
2023/04/11 05:32:05;;;;;;;;;5.00;3.00;;;;;13.62;100.00;101313.06;5070098;28;50986;-76
2023/04/11 05:34:33;;;;;;;;;2.00;1.00;;;;;13.68;100.00;101311.50;5068851;28;48642;-76
2023/04/11 05:36:58;;;;;;;;;5.33;4.00;;;;;13.69;100.00;101313.16;5076902;28;45314;-76
2023/04/11 05:39:23;;;;;;;;;4.33;2.67;;;;;13.50;100.00;101302.00;5080117;28;45307;-75
2023/04/11 05:41:49;;;;;;;;;5.00;4.00;;;;;13.49;100.00;101308.28;5079948;28;45551;-76
2023/04/11 05:44:14;;;;;;;;;2.00;2.00;;;;;13.54;100.00;101321.13;5080275;28;45203;-76
2023/04/11 05:46:40;;;;;;;;;3.67;2.00;;;;;13.53;100.00;101320.28;5078364;28;55470;-76
2023/04/11 05:49:05;;;;;;;;;3.00;2.00;;;;;13.54;100.00;101310.44;5079872;28;45454;-76
2023/04/11 05:51:30;;;;;;;;;2.67;1.67;;;;;13.56;100.00;101325.28;5061348;28;57450;-76
2023/04/11 05:53:56;;;;;;;;;3.67;3.67;;;;;13.59;100.00;101326.78;5079763;28;49517;-77
2023/04/11 05:56:21;;;;;;;;;8.00;2.33;;;;;13.57;100.00;101329.63;5061165;28;54919;-77
2023/04/11 05:58:46;;;;;;;;;2.33;1.00;;;;;13.49;100.00;101317.16;5080121;28;45227;-77
2023/04/11 06:01:13;;;;;;;;;2.67;2.67;;;;;13.50;100.00;101318.81;5061416;28;52679;-77
2023/04/11 06:03:38;;;;;;;;;3.00;2.00;;;;;13.60;100.00;101331.09;5059340;28;45331;-77
2023/04/11 06:06:04;;;;;;;;;3.00;3.00;;;;;13.60;100.00;101321.25;5079688;28;45287;-76
2023/04/11 06:08:30;;;;;;;;;4.67;3.67;;;;;13.58;100.00;101322.44;5079820;28;45569;-77
2023/04/11 06:10:55;;;;;;;;;5.00;3.33;;;;;13.60;100.00;101328.44;5079891;28;45338;-77
2023/04/11 06:13:20;;;;;;;;;4.33;4.33;;;;;13.54;100.00;101331.81;5079578;28;45379;-77
2023/04/11 06:15:46;;;;;;;;;2.33;2.33;;;;;13.44;100.00;101327.50;5062138;28;45398;-76
2023/04/11 06:18:12;;;;;;;;;6.00;5.00;;;;;13.49;100.00;101317.16;5080085;28;45339;-77
2023/04/11 06:20:37;;;;;;;;;2.67;2.67;;;;;13.62;100.00;101337.09;5079475;28;45943;-77
2023/04/11 06:23:03;;;;;;;;;3.00;3.00;;;;;13.49;100.00;101338.53;5079462;28;45349;-77
2023/04/11 06:25:28;;;;;;;;;7.00;3.33;;;;;13.45;100.00;101334.53;5079652;28;45501;-77
2023/04/11 06:27:54;;;;;;;;;3.67;3.00;;;;;13.50;100.00;101347.38;5063094;28;47053;-77
2023/04/11 06:30:19;;;;;;;;;2.67;2.67;;;;;13.43;100.00;101349.88;5081476;28;51391;-77
2023/04/11 06:32:44;;;;;;;;;5.33;5.00;;;;;13.45;100.00;101350.56;5081484;28;45418;-77
2023/04/11 06:35:10;;;;;;;;;6.00;3.00;;;;;13.56;100.00;101335.16;5083190;27;45280;-77
2023/04/11 06:37:35;;;;;;;;;5.00;4.00;;;;;13.58;100.00;101351.81;5082704;27;45165;-77
2023/04/11 06:40:00;;;;;;;;;4.33;3.00;;;;;13.55;100.00;101346.81;5082928;27;45229;-77
2023/04/11 06:42:26;;;;;;;;;3.33;3.00;;;;;13.53;100.00;101348.84;5082354;27;45294;-77
2023/04/11 06:44:52;;;;;;;;;6.00;4.00;;;;;13.58;100.00;101360.66;5083455;27;45229;-77
2023/04/11 06:47:17;;;;;;;;;5.67;5.33;;;;;13.48;100.00;101354.69;5083355;27;45314;-78
2023/04/11 06:49:42;;;;;;;;;4.67;4.00;;;;;13.59;100.00;101364.16;5082659;27;45259;-77
2023/04/11 06:52:07;;;;;;;;;4.67;3.67;;;;;13.62;100.00;101364.63;5082698;27;45509;-77
2023/04/11 06:54:35;;;;;;;;;4.33;2.33;;;;;13.67;100.00;101368.59;5082927;27;45419;-77
2023/04/11 06:57:01;;;;;;;;;4.33;3.00;;;;;13.67;100.00;101381.94;5082408;27;45422;-77
2023/04/11 06:59:26;;;;;;;;;4.00;4.00;;;;;13.73;100.00;101379.41;5079070;27;45368;-78
2023/04/11 07:01:51;;;;;;;;;3.00;3.00;;;;;13.82;100.00;101382.84;5060165;28;45454;-77
2023/04/11 07:04:17;;;;;;;;;5.00;4.00;;;;;13.74;100.00;101366.88;5062173;28;45375;-78
2023/04/11 07:06:42;;;;;;;;;7.00;4.00;;;;;13.68;100.00;101372.94;5062022;28;45308;-77
2023/04/11 07:09:08;;;;;;;;;4.00;4.00;;;;;13.75;100.00;101388.06;5043778;28;50222;-78
2023/04/11 07:11:34;;;;;;;;;7.67;7.00;;;;;13.83;100.00;101381.00;5062106;28;45346;-78
2023/04/11 07:14:00;;;;;;;;;5.67;5.33;;;;;13.97;100.00;101387.38;5062045;28;45312;-78
2023/04/11 07:16:25;;;;;;;;;4.00;4.00;;;;;13.96;100.00;101397.25;5062881;28;45438;-79
2023/04/11 07:18:52;;;;;;;;;8.67;5.33;;;;;13.99;100.00;101390.72;5063698;28;45204;-78
2023/04/11 07:21:17;;;;;;;;;5.33;4.33;;;;;13.93;100.00;101381.56;5061511;28;46097;-79
2023/04/11 07:23:43;;;;;;;;;7.00;5.67;;;;;14.04;100.00;101393.69;5063869;28;45314;-78
2023/04/11 07:26:09;;;;;;;;;8.67;5.00;;;;;14.10;100.00;101400.94;5061743;28;45261;-78
2023/04/11 07:28:39;;;;;;;;;3.67;3.67;;;;;14.07;100.00;101392.47;5064225;28;48147;-77
2023/04/11 07:31:06;;;;;;;;;5.00;4.00;;;;;14.18;100.00;101391.19;5082434;27;45308;-79
2023/04/11 07:33:32;;;;;;;;;5.00;3.67;;;;;14.20;100.00;101382.00;5081070;28;45232;-77
2023/04/11 07:35:57;;;;;;;;;3.33;2.33;;;;;14.29;100.00;101387.25;5080643;28;45983;-78
2023/04/11 07:38:28;;;;;;;;;5.67;4.00;;;;;14.30;100.00;101368.34;5078096;28;47090;-79
2023/04/11 07:40:56;;;;;;;;;7.00;5.00;;;;;14.32;100.00;101381.53;5080657;28;45312;-78
2023/04/11 07:43:24;;;;;;;;;4.67;3.00;;;;;14.30;100.00;101367.53;5080482;27;45252;-78
2023/04/11 07:45:50;;;;;;;;;4.00;3.67;;;;;14.58;100.00;101377.56;5063535;28;45616;-77
2023/04/11 07:48:15;;;;;;;;;3.00;3.00;;;;;14.61;100.00;101382.56;5081785;28;45404;-78
2023/04/11 07:50:40;;;;;;;;;3.33;3.33;;;;;14.50;100.00;101376.66;5081246;28;58934;-78
2023/04/11 07:53:06;;;;;;;;;3.67;3.33;;;;;14.59;100.00;101388.09;5082397;28;45331;-77
2023/04/11 07:55:32;;;;;;;;;5.00;4.33;;;;;14.64;100.00;101392.88;5063573;28;45877;-78
2023/04/11 07:57:57;;;;;;;;;4.33;4.33;;;;;14.62;100.00;101381.53;5081505;28;46155;-77
2023/04/11 08:00:23;;;;;;;;;3.00;3.00;;;;;14.60;100.00;101372.84;5081210;28;48850;-77
2023/04/11 08:02:50;;;;;;;;;5.33;3.67;;;;;14.68;100.00;101377.28;5063421;28;45377;-78
2023/04/11 08:05:16;;;;;;;;;3.67;3.67;;;;;14.64;100.00;101380.31;5081597;28;45274;-78
2023/04/11 08:07:41;;;;;;;;;3.33;2.00;;;;;14.63;100.00;101380.50;5064744;28;48351;-78
2023/04/11 08:10:07;;;;;;;;;2.00;2.00;;;;;14.58;100.00;101364.19;5081627;28;45135;-80
2023/04/11 08:12:32;;;;;;;;;5.33;5.33;;;;;14.61;100.00;101367.31;5081423;28;45318;-82
2023/04/11 08:14:57;;;;;;;;;4.67;3.33;;;;;14.74;100.00;101380.06;5081076;28;47346;-81
2023/04/11 08:17:24;;;;;;;;;3.33;2.00;;;;;14.80;100.00;101385.69;5081648;28;45368;-81
2023/04/11 08:19:50;;;;;;;;;7.00;5.00;;;;;14.88;100.00;101398.97;5081395;28;45162;-80
2023/04/11 08:22:15;;;;;;;;;2.00;2.00;;;;;14.85;100.00;101391.31;5072585;28;45360;-81
2023/04/11 08:24:40;;;;;;;;;4.33;4.33;;;;;14.94;100.00;101400.06;5071033;28;52836;-81
2023/04/11 08:27:05;;;;;;;;;6.67;4.00;;;;;14.98;100.00;101399.53;5077470;28;54309;-80
2023/04/11 08:29:31;;;;;;;;;5.00;4.00;;;;;14.99;100.00;101403.00;5080902;28;45444;-80
2023/04/11 08:31:56;;;;;;;;;7.33;4.67;;;;;15.02;100.00;101406.16;5079926;28;45290;-82
2023/04/11 08:34:22;;;;;;;;;2.33;2.00;;;;;15.06;100.00;101398.59;5079589;28;46320;-80
2023/04/11 08:36:47;;;;;;;;;2.67;2.00;;;;;15.07;100.00;101392.19;5080760;28;46115;-80
2023/04/11 08:39:12;;;;;;;;;3.33;3.33;;;;;15.06;100.00;101390.56;5080816;28;45306;-79
2023/04/11 08:41:38;;;;;;;;;6.33;4.33;;;;;15.12;100.00;101389.78;5080890;28;45378;-79
2023/04/11 08:44:04;;;;;;;;;5.67;5.00;;;;;15.24;100.00;101397.34;5080899;27;45358;-80
2023/04/11 08:46:31;;;;;;;;;4.00;3.33;;;;;15.26;100.00;101388.09;5080844;28;46105;-80
2023/04/11 08:48:57;;;;;;;;;3.67;3.67;;;;;15.32;100.00;101383.81;5079524;28;46044;-84
2023/04/11 08:51:25;;;;;;;;;3.33;3.00;;;;;15.46;100.00;101386.63;5080778;27;45308;-82
2023/04/11 08:53:52;;;;;;;;;7.00;4.67;;;;;15.60;100.00;101387.59;5081158;27;45346;-80
2023/04/11 08:56:18;;;;;;;;;3.33;3.33;;;;;15.67;100.00;101385.78;5080532;27;47234;-82
2023/04/11 08:58:44;;;;;;;;;7.00;4.00;;;;;15.76;100.00;101390.00;5080531;28;45302;-81
2023/04/11 09:01:33;;;;;;;;;2.33;2.33;;;;;15.87;100.00;101411.94;5080585;27;45362;-79
2023/04/11 09:04:04;;;;;;;;;4.00;2.00;;;;;15.83;100.00;101400.75;5080640;27;45305;-82
2023/04/11 09:06:33;;;;;;;;;5.33;5.33;;;;;15.81;100.00;101399.31;5078949;28;48547;-80
2023/04/11 09:08:59;;;;;;;;;2.00;2.00;;;;;15.95;100.00;101390.34;5079088;28;45326;-82
2023/04/11 09:11:35;;;;;;;;;4.67;4.00;;;;;16.00;100.00;101395.16;5079516;28;45445;-81
2023/04/11 09:14:08;;;;;;;;;2.00;2.00;;;;;16.04;99.64;101383.00;5082328;28;45437;-81
2023/04/11 09:16:53;;;;;;;;;1.00;1.00;;;;;16.12;98.92;101398.97;5080996;27;45306;-78
2023/04/11 09:19:26;;;;;;;;;4.67;3.00;;;;;16.20;99.01;101402.53;5080399;28;45282;-79
2023/04/11 09:21:53;;;;;;;;;4.33;3.00;;;;;16.28;98.31;101399.69;5076967;27;45589;-78
2023/04/11 09:24:18;;;;;;;;;3.00;3.00;;;;;16.28;97.86;101392.47;5064766;28;45288;-78
2023/04/11 09:26:44;;;;;;;;;3.67;3.33;;;;;16.28;96.68;101376.38;5067240;28;45466;-83
2023/04/11 09:29:09;;;;;;;;;3.00;3.00;;;;;16.34;94.55;101376.63;5062306;28;45535;-79
2023/04/11 09:31:44;;;;;;;;;5.67;4.00;;;;;16.44;93.84;101378.94;5080462;27;45685;-80
2023/04/11 09:34:11;;;;;;;;;3.00;3.00;;;;;16.52;95.03;101387.66;5063344;28;46054;-81
2023/04/11 09:36:37;;;;;;;;;2.33;2.00;;;;;16.58;93.20;101393.28;5050193;28;46095;-83
2023/04/11 09:39:19;;;;;;;;;3.67;3.00;;;;;16.54;93.84;101390.16;5070213;28;45342;-81
2023/04/11 09:41:44;;;;;;;;;3.00;3.00;;;;;16.49;93.56;101371.94;5047742;28;45380;-79
2023/04/11 09:44:10;;;;;;;;;2.33;2.33;;;;;16.43;93.89;101370.06;5041537;28;47175;-80
2023/04/11 09:46:36;;;;;;;;;3.33;3.00;;;;;16.67;93.36;101375.94;5060556;28;45314;-80
2023/04/11 09:49:01;;;;;;;;;4.33;3.00;;;;;16.65;91.66;101378.03;5057909;28;45322;-81
2023/04/11 09:51:27;;;;;;;;;3.00;2.00;;;;;16.74;91.64;101389.41;5042691;28;45404;-79
2023/04/11 09:53:53;;;;;;;;;5.33;3.67;;;;;16.57;91.31;101376.34;5060325;28;45486;-80
2023/04/11 09:56:19;;;;;;;;;5.67;3.67;;;;;16.56;92.10;101376.53;5065222;28;46581;-80
2023/04/11 09:58:46;;;;;;;;;6.00;4.00;;;;;16.65;91.38;101394.13;5068666;28;45395;-81
2023/04/11 10:01:13;;;;;;;;;2.33;0.00;;;;;16.71;90.96;101393.34;5067573;28;45457;-80
2023/04/11 10:03:41;;;;;;;;;3.00;2.00;;;;;16.74;89.58;101382.19;5067854;28;45568;-80
2023/04/11 10:06:13;;;;;;;;;6.00;4.00;;;;;16.73;89.59;101383.22;5050254;28;47646;-82
2023/04/11 10:08:43;;;;;;;;;5.67;3.00;;;;;16.83;88.08;101382.00;5068087;28;45327;-81
2023/04/11 10:11:10;;;;;;;;;3.67;2.00;;;;;16.95;87.27;101388.47;5058555;28;45482;-81
2023/04/11 10:13:46;;;;;;;;;2.67;1.67;;;;;16.73;85.87;101359.06;5051442;28;46973;-81
2023/04/11 10:16:20;;;;;;;;;2.00;2.00;;;;;16.85;86.66;101390.72;5054184;28;47277;-83
2023/04/11 10:18:51;;;;;;;;;2.00;1.33;;;;;16.85;87.23;101396.88;5058628;28;45561;-80
2023/04/11 10:21:28;;;;;;;;;7.67;4.67;;;;;16.99;88.98;101405.00;5040486;28;45400;-81
2023/04/11 10:24:10;;;;;;;;;4.33;4.00;;;;;17.06;88.73;101395.09;5059132;28;45575;-81
2023/04/11 10:26:56;;;;;;;;;4.00;4.00;;;;;17.21;88.06;101394.16;5041146;28;47296;-83
2023/04/11 10:29:31;;;;;;;;;4.67;4.00;;;;;17.29;87.14;101378.69;5067903;28;45383;-82
2023/04/11 10:32:16;;;;;;;;;4.00;4.00;;;;;17.31;84.64;101367.72;5079703;27;45318;-81
2023/04/11 10:34:53;;;;;;;;;4.00;4.00;;;;;17.46;82.00;101374.78;5079451;27;45273;-80
2023/04/11 10:37:39;;;;;;;;;5.00;3.33;;;;;17.40;84.25;101349.56;5079242;28;45337;-80
2023/04/11 10:40:08;;;;;;;;;3.00;3.00;;;;;17.64;84.41;101374.16;5059451;28;45334;-79
2023/04/11 10:42:35;;;;;;;;;3.33;2.00;;;;;17.78;84.14;101362.38;5058415;28;45336;-81
2023/04/11 10:45:26;;;;;;;;;4.00;3.00;;;;;17.88;82.02;101374.56;5058620;28;45563;-81
2023/04/11 10:47:55;;;;;;;;;1.00;1.00;;;;;17.93;82.24;101369.41;5059602;28;45433;-80
2023/04/11 10:50:26;;;;;;;;;2.00;2.00;;;;;18.01;81.89;101352.22;5049775;28;45510;-81
2023/04/11 10:52:53;;;;;;;;;1.67;1.67;;;;;17.95;81.88;101336.91;5058720;28;45252;-80
2023/04/11 10:55:19;;;;;;;;;3.67;2.33;;;;;17.92;82.21;101346.22;5078593;28;45403;-81
2023/04/11 10:58:07;;;;;;;;;2.00;1.33;;;;;17.95;81.33;101351.19;5066077;28;47198;-79
2023/04/11 11:00:56;;;;;;;;;4.33;3.00;;;;;17.95;80.65;101363.81;5053053;28;45466;-78
2023/04/11 11:03:28;;;;;;;;;2.33;1.67;;;;;17.94;80.73;101357.63;5065827;28;45490;-78
2023/04/11 11:06:02;;;;;;;;;2.00;2.00;;;;;18.08;78.09;101346.84;5078114;28;45295;-78
2023/04/11 11:08:30;;;;;;;;;4.00;1.33;;;;;18.03;76.77;101334.84;5059967;28;47674;-79
2023/04/11 11:11:02;;;;;;;;;7.33;5.00;;;;;18.07;77.58;101337.13;5061905;28;45454;-79
2023/04/11 11:13:48;;;;;;;;;3.00;3.00;;;;;18.10;75.80;101334.00;5041136;28;45381;-79
2023/04/11 11:16:18;;;;;;;;;2.00;2.00;;;;;18.08;75.52;101320.75;5062413;28;45448;-79
2023/04/11 11:18:49;;;;;;;;;2.33;2.33;;;;;18.05;77.12;101305.06;5063217;28;47160;-78
2023/04/11 11:21:18;;;;;;;;;3.00;1.67;;;;;18.14;76.30;101313.75;5081800;28;45339;-79
2023/04/11 11:23:54;;;;;;;;;3.33;3.00;;;;;18.17;77.08;101299.88;5082295;28;45334;-79
2023/04/11 11:26:19;;;;;;;;;3.00;1.67;;;;;18.10;79.64;101304.41;5081530;28;45446;-79